Time;durP1;ratioP1;P1;durP2;ratioP2;P2;SDS_P1;SDS_P2;PMS_P1;PMS_P2;Temp;Humidity;BMP_temperature;BMP_pressure;BME280_temperature;BME280_humidity;BME280_pressure;Samples;Min_cycle;Max_cycle;Signal;HPM_P1;HPM_P2
2023/03/21 00:02:28;;;;;;;;;;;20.90;33.20;;;;;;8328577;28;20378;-45
2023/03/21 00:06:29;;;;;;;;;;;20.90;33.20;;;;;;8329017;28;19918;-45
2023/03/21 00:10:30;;;;;;;;;;;20.80;33.20;;;;;;8328869;28;19967;-45
2023/03/21 00:14:30;;;;;;;;;;;20.90;33.30;;;;;;8328382;28;20279;-45
2023/03/21 00:18:31;;;;;;;;;;;20.80;33.30;;;;;;8329098;28;20003;-45
2023/03/21 00:22:33;;;;;;;;;;;20.80;33.30;;;;;;8333517;28;19918;-44
2023/03/21 00:26:34;;;;;;;;;;;20.80;33.20;;;;;;8335122;28;19917;-45
2023/03/21 00:30:35;;;;;;;;;;;20.80;33.20;;;;;;8334983;28;20444;-45
2023/03/21 00:34:37;;;;;;;;;;;20.80;33.30;;;;;;8334249;28;20352;-46
2023/03/21 00:38:37;;;;;;;;;;;20.70;33.20;;;;;;8334831;28;20365;-44
2023/03/21 00:42:38;;;;;;;;;;;20.70;33.20;;;;;;8334911;28;19921;-45
2023/03/21 00:46:38;;;;;;;;;;;20.70;33.20;;;;;;8333993;28;20328;-45
2023/03/21 00:50:39;;;;;;;;;;;20.70;33.20;;;;;;8334536;28;19962;-43
2023/03/21 00:54:39;;;;;;;;;;;20.60;33.20;;;;;;8334069;28;19921;-43
2023/03/21 00:58:40;;;;;;;;;;;20.70;33.30;;;;;;8333502;28;19924;-43
2023/03/21 01:02:55;;;;;;;;;;;20.70;33.30;;;;;;8333913;28;19921;-44
2023/03/21 01:06:56;;;;;;;;;;;20.60;33.20;;;;;;8301405;28;19922;-45
2023/03/21 01:10:59;;;;;;;;;;;20.60;33.10;;;;;;8325945;28;20473;-44
2023/03/21 01:15:00;;;;;;;;;;;20.60;33.20;;;;;;8333900;28;19925;-44
2023/03/21 01:19:01;;;;;;;;;;;20.60;33.10;;;;;;8333392;28;20310;-44
2023/03/21 01:23:01;;;;;;;;;;;20.60;33.20;;;;;;8332848;28;19940;-44
2023/03/21 01:27:02;;;;;;;;;;;20.60;33.20;;;;;;8333156;28;19917;-43
2023/03/21 01:31:03;;;;;;;;;;;20.60;33.20;;;;;;8332823;28;20378;-44
2023/03/21 01:35:04;;;;;;;;;;;20.50;33.20;;;;;;8331609;28;20001;-43
2023/03/21 01:39:05;;;;;;;;;;;20.60;33.20;;;;;;8332675;28;19940;-45
2023/03/21 01:43:18;;;;;;;;;;;20.50;33.30;;;;;;8332519;28;19917;-44
2023/03/21 01:47:18;;;;;;;;;;;20.50;33.80;;;;;;8331985;28;19948;-44
2023/03/21 01:51:20;;;;;;;;;;;20.50;33.20;;;;;;8332164;28;19997;-43
2023/03/21 01:55:21;;;;;;;;;;;20.50;33.20;;;;;;8331938;28;19928;-44
2023/03/21 01:59:21;;;;;;;;;;;20.50;33.20;;;;;;8331383;28;19919;-43
2023/03/21 02:03:22;;;;;;;;;;;20.50;33.20;;;;;;8330782;28;19928;-44
2023/03/21 02:07:30;;;;;;;;;;;20.40;33.20;;;;;;8331718;28;19972;-44
2023/03/21 02:11:31;;;;;;;;;;;20.40;33.20;;;;;;8330831;28;19928;-44
2023/03/21 02:15:33;;;;;;;;;;;20.40;33.20;;;;;;8330958;28;19925;-45
2023/03/21 02:19:42;;;;;;;;;;;20.40;33.20;;;;;;8330663;28;19913;-42
2023/03/21 02:24:02;;;;;;;;;;;20.40;33.20;;;;;;8330939;28;19913;-44
2023/03/21 02:28:13;;;;;;;;;;;20.30;33.20;;;;;;8331371;28;20051;-44
2023/03/21 02:32:23;;;;;;;;;;;20.30;33.20;;;;;;8330847;28;19952;-44
2023/03/21 02:36:26;;;;;;;;;;;20.30;33.20;;;;;;8331051;28;19986;-45
2023/03/21 02:40:32;;;;;;;;;;;20.30;33.20;;;;;;8330929;28;19919;-44
2023/03/21 02:44:39;;;;;;;;;;;20.30;33.10;;;;;;8329638;28;19923;-44
2023/03/21 02:48:57;;;;;;;;;;;20.20;33.10;;;;;;8330943;28;19919;-44
2023/03/21 02:52:59;;;;;;;;;;;20.20;33.10;;;;;;8330365;28;20475;-44
2023/03/21 02:57:03;;;;;;;;;;;20.20;33.10;;;;;;8330474;28;19925;-49
2023/03/21 03:01:05;;;;;;;;;;;20.20;33.20;;;;;;8330340;28;20326;-43
2023/03/21 03:05:12;;;;;;;;;;;20.20;33.10;;;;;;8329884;28;19917;-44
2023/03/21 03:09:23;;;;;;;;;;;20.20;33.20;;;;;;8330227;28;19996;-44
2023/03/21 03:13:32;;;;;;;;;;;20.20;33.20;;;;;;8330530;28;20329;-44
2023/03/21 03:17:36;;;;;;;;;;;20.20;33.10;;;;;;8329957;28;19951;-44
2023/03/21 03:21:50;;;;;;;;;;;20.20;33.10;;;;;;8330244;28;19971;-43
2023/03/21 03:26:11;;;;;;;;;;;20.20;33.10;;;;;;8329433;28;19917;-43
2023/03/21 03:30:12;;;;;;;;;;;20.10;33.10;;;;;;8315540;28;19924;-43
2023/03/21 03:34:15;;;;;;;;;;;20.10;33.10;;;;;;8336926;28;20374;-44
2023/03/21 03:38:16;;;;;;;;;;;20.10;33.20;;;;;;8329005;28;19917;-44
2023/03/21 03:42:19;;;;;;;;;;;20.10;33.10;;;;;;8330073;28;20008;-44
2023/03/21 03:46:35;;;;;;;;;;;20.10;33.20;;;;;;8329837;28;19917;-44
2023/03/21 03:50:40;;;;;;;;;;;20.00;33.10;;;;;;8329703;28;19942;-43
2023/03/21 03:54:42;;;;;;;;;;;20.00;33.20;;;;;;8329426;28;19975;-43
2023/03/21 03:58:43;;;;;;;;;;;20.00;33.20;;;;;;8335323;28;19953;-43
2023/03/21 04:02:44;;;;;;;;;;;20.00;33.10;;;;;;8335843;28;19991;-44
2023/03/21 04:06:50;;;;;;;;;;;20.00;33.10;;;;;;8336102;28;19921;-43
2023/03/21 04:10:50;;;;;;;;;;;20.00;33.10;;;;;;8337284;28;19913;-43
2023/03/21 04:14:51;;;;;;;;;;;20.00;33.10;;;;;;8335609;28;20286;-43
2023/03/21 04:18:51;;;;;;;;;;;19.90;33.10;;;;;;8335847;28;19924;-43
2023/03/21 04:22:53;;;;;;;;;;;19.90;33.10;;;;;;8334940;28;19933;-43
2023/03/21 04:26:53;;;;;;;;;;;19.90;33.10;;;;;;8335587;28;19971;-43
2023/03/21 04:30:56;;;;;;;;;;;19.90;33.10;;;;;;8335347;28;19913;-44
2023/03/21 04:34:57;;;;;;;;;;;20.00;33.10;;;;;;8334659;28;19925;-43
2023/03/21 04:39:00;;;;;;;;;;;19.90;33.60;;;;;;8335492;28;20370;-43
2023/03/21 04:43:01;;;;;;;;;;;20.00;33.10;;;;;;8334810;28;19917;-43
2023/03/21 04:47:01;;;;;;;;;;;20.00;33.10;;;;;;8334362;28;19917;-43
2023/03/21 04:51:02;;;;;;;;;;;19.90;33.00;;;;;;8334743;28;19924;-43
2023/03/21 04:55:02;;;;;;;;;;;19.90;33.00;;;;;;8334592;28;20012;-43
2023/03/21 04:59:10;;;;;;;;;;;19.90;33.00;;;;;;8334062;28;20374;-44
2023/03/21 05:03:18;;;;;;;;;;;19.90;33.00;;;;;;8334422;28;19920;-43
2023/03/21 05:07:19;;;;;;;;;;;20.00;33.00;;;;;;8332237;28;20016;-43
2023/03/21 05:11:21;;;;;;;;;;;19.90;33.00;;;;;;8332807;28;21414;-43
2023/03/21 05:15:22;;;;;;;;;;;20.00;33.00;;;;;;8333529;28;19933;-43
2023/03/21 05:19:33;;;;;;;;;;;20.10;32.80;;;;;;8333928;28;20362;-43
2023/03/21 05:23:37;;;;;;;;;;;20.20;32.90;;;;;;8333630;28;20438;-44
2023/03/21 05:27:37;;;;;;;;;;;20.30;32.80;;;;;;8333650;28;19925;-45
2023/03/21 05:31:38;;;;;;;;;;;20.40;32.70;;;;;;8332960;28;20012;-44
2023/03/21 05:35:38;;;;;;;;;;;20.50;32.70;;;;;;8333014;28;20468;-44
2023/03/21 05:39:39;;;;;;;;;;;20.60;32.60;;;;;;8333150;28;19913;-43
2023/03/21 05:43:39;;;;;;;;;;;20.70;32.60;;;;;;8332727;28;20346;-44
2023/03/21 05:47:40;;;;;;;;;;;20.70;32.60;;;;;;8332744;28;19917;-44
2023/03/21 05:51:41;;;;;;;;;;;20.70;32.60;;;;;;8332836;28;20304;-44
2023/03/21 05:55:41;;;;;;;;;;;20.70;32.60;;;;;;8331901;28;19925;-44
2023/03/21 05:59:41;;;;;;;;;;;20.80;32.60;;;;;;8332582;28;20294;-44
2023/03/21 06:03:42;;;;;;;;;;;20.80;32.60;;;;;;8332103;28;19977;-44
2023/03/21 06:07:42;;;;;;;;;;;20.70;32.60;;;;;;8331664;28;19928;-44
2023/03/21 06:11:45;;;;;;;;;;;20.70;32.60;;;;;;8331945;28;19960;-43
2023/03/21 06:15:46;;;;;;;;;;;20.70;32.60;;;;;;8331837;28;19972;-45
2023/03/21 06:19:46;;;;;;;;;;;20.70;32.60;;;;;;8331450;28;19929;-43
2023/03/21 06:23:47;;;;;;;;;;;20.70;32.60;;;;;;8345665;28;19963;-43
2023/03/21 06:27:47;;;;;;;;;;;20.70;32.60;;;;;;8341077;28;19940;-42
2023/03/21 06:31:48;;;;;;;;;;;20.70;32.60;;;;;;8330807;28;19967;-43
2023/03/21 06:35:52;;;;;;;;;;;20.70;32.60;;;;;;8331197;28;20329;-43
2023/03/21 06:39:52;;;;;;;;;;;20.70;32.50;;;;;;8331547;28;19979;-43
2023/03/21 06:43:53;;;;;;;;;;;20.80;32.30;;;;;;8330441;28;19925;-43
2023/03/21 06:47:53;;;;;;;;;;;20.80;32.10;;;;;;8330920;28;19923;-44
2023/03/21 06:51:54;;;;;;;;;;;20.80;32.20;;;;;;8330893;28;19913;-44
2023/03/21 06:55:55;;;;;;;;;;;20.80;32.30;;;;;;8330060;28;19932;-43
2023/03/21 06:59:55;;;;;;;;;;;20.70;32.30;;;;;;8330615;28;19913;-44
2023/03/21 07:03:57;;;;;;;;;;;20.70;32.40;;;;;;8330401;28;19921;-43
2023/03/21 07:08:00;;;;;;;;;;;20.70;32.40;;;;;;8330126;28;19999;-43
2023/03/21 07:12:00;;;;;;;;;;;20.70;32.40;;;;;;8330299;28;19917;-44
2023/03/21 07:16:00;;;;;;;;;;;20.80;32.40;;;;;;8329882;28;19928;-43
2023/03/21 07:20:03;;;;;;;;;;;20.80;32.40;;;;;;8329767;28;19917;-44
2023/03/21 07:24:03;;;;;;;;;;;20.90;32.40;;;;;;8330032;28;20011;-44
2023/03/21 07:28:07;;;;;;;;;;;20.90;32.40;;;;;;8329937;28;19917;-45
2023/03/21 07:32:08;;;;;;;;;;;20.90;32.40;;;;;;8311110;28;19917;-44
2023/03/21 07:36:11;;;;;;;;;;;20.90;32.40;;;;;;8330206;28;20015;-44
2023/03/21 07:40:12;;;;;;;;;;;20.90;32.30;;;;;;8329917;28;20333;-44
2023/03/21 07:44:12;;;;;;;;;;;20.90;32.30;;;;;;8329260;28;20000;-45
2023/03/21 07:48:13;;;;;;;;;;;21.00;32.30;;;;;;8329616;28;19925;-44
2023/03/21 07:52:13;;;;;;;;;;;21.00;32.30;;;;;;8329598;28;19924;-44
2023/03/21 07:56:14;;;;;;;;;;;21.00;32.30;;;;;;8328893;28;20012;-44
2023/03/21 08:00:21;;;;;;;;;;;20.90;32.30;;;;;;8329919;28;20017;-44
2023/03/21 08:04:22;;;;;;;;;;;20.90;32.40;;;;;;8328406;28;19968;-45
2023/03/21 08:08:22;;;;;;;;;;;20.80;32.40;;;;;;8328759;28;20433;-44
2023/03/21 08:12:22;;;;;;;;;;;20.80;32.50;;;;;;8329425;28;19913;-45
2023/03/21 08:16:23;;;;;;;;;;;20.80;32.50;;;;;;8329093;28;19929;-46
2023/03/21 08:20:23;;;;;;;;;;;20.80;32.60;;;;;;8328793;28;20035;-44
2023/03/21 08:24:24;;;;;;;;;;;20.80;32.50;;;;;;8329085;28;19961;-44
2023/03/21 08:28:25;;;;;;;;;;;20.80;32.60;;;;;;8329012;28;19913;-44
2023/03/21 08:32:29;;;;;;;;;;;20.80;32.60;;;;;;8328751;28;19923;-43
2023/03/21 08:36:31;;;;;;;;;;;20.80;32.60;;;;;;8329150;28;19922;-47
2023/03/21 08:40:31;;;;;;;;;;;20.80;32.60;;;;;;8329224;28;19924;-44
2023/03/21 08:44:32;;;;;;;;;;;20.70;32.60;;;;;;8332424;28;19921;-46
2023/03/21 08:48:32;;;;;;;;;;;20.70;32.60;;;;;;8334442;28;19975;-46
2023/03/21 08:52:33;;;;;;;;;;;20.70;32.60;;;;;;8334319;28;19920;-48
2023/03/21 08:56:34;;;;;;;;;;;20.70;32.60;;;;;;8333514;28;19925;-45
2023/03/21 09:00:34;;;;;;;;;;;20.70;32.60;;;;;;8334402;28;19952;-47
2023/03/21 09:04:35;;;;;;;;;;;20.70;32.60;;;;;;8333525;28;19920;-43
2023/03/21 09:08:36;;;;;;;;;;;20.70;32.60;;;;;;8333713;28;20012;-45
2023/03/21 09:12:36;;;;;;;;;;;20.70;32.60;;;;;;8333930;28;19913;-46
2023/03/21 09:16:37;;;;;;;;;;;20.70;32.60;;;;;;8333365;28;19936;-45
2023/03/21 09:20:39;;;;;;;;;;;20.70;32.60;;;;;;8333985;28;20008;-45
2023/03/21 09:24:41;;;;;;;;;;;20.60;32.60;;;;;;8333602;28;19917;-45
2023/03/21 09:28:41;;;;;;;;;;;20.70;32.60;;;;;;8332800;28;20290;-43
2023/03/21 09:32:47;;;;;;;;;;;20.70;32.70;;;;;;8333247;28;19955;-46
2023/03/21 09:36:50;;;;;;;;;;;20.70;32.70;;;;;;8333104;28;19932;-48
2023/03/21 09:40:56;;;;;;;;;;;20.60;32.70;;;;;;8332252;28;19917;-44
2023/03/21 09:45:07;;;;;;;;;;;20.60;32.70;;;;;;8332669;28;20027;-45
2023/03/21 09:49:14;;;;;;;;;;;20.60;32.60;;;;;;8332619;28;20294;-44
2023/03/21 09:53:19;;;;;;;;;;;20.60;32.60;;;;;;8331515;28;19925;-45
2023/03/21 09:57:38;;;;;;;;;;;20.60;32.60;;;;;;8332285;28;19956;-46
2023/03/21 10:01:43;;;;;;;;;;;20.70;32.60;;;;;;8331921;28;19966;-45
2023/03/21 10:05:45;;;;;;;;;;;20.60;32.60;;;;;;8332330;28;19996;-44
2023/03/21 10:09:47;;;;;;;;;;;20.60;32.60;;;;;;8331976;28;20400;-44
2023/03/21 10:13:49;;;;;;;;;;;20.60;32.70;;;;;;8331323;28;19917;-46
2023/03/21 10:17:54;;;;;;;;;;;20.60;32.60;;;;;;8331967;28;20362;-45
2023/03/21 10:21:54;;;;;;;;;;;20.60;32.70;;;;;;8331951;28;19913;-45
2023/03/21 10:25:59;;;;;;;;;;;20.60;32.70;;;;;;8331657;28;19970;-45
2023/03/21 10:30:01;;;;;;;;;;;20.70;32.70;;;;;;8332080;28;19917;-46
2023/03/21 10:34:05;;;;;;;;;;;20.70;32.60;;;;;;8331248;28;19924;-45
2023/03/21 10:38:09;;;;;;;;;;;20.70;32.70;;;;;;8330752;28;19948;-45
2023/03/21 10:42:16;;;;;;;;;;;20.70;32.70;;;;;;8330962;28;19920;-45
2023/03/21 10:46:22;;;;;;;;;;;20.70;32.70;;;;;;8331285;28;19917;-44
2023/03/21 10:50:28;;;;;;;;;;;20.70;32.70;;;;;;8312610;28;20319;-44
2023/03/21 10:54:29;;;;;;;;;;;20.70;32.70;;;;;;8330837;28;19929;-46
2023/03/21 10:58:34;;;;;;;;;;;20.70;32.70;;;;;;8330629;28;19975;-45
2023/03/21 11:02:36;;;;;;;;;;;20.70;32.80;;;;;;8330291;28;20319;-46
2023/03/21 11:06:37;;;;;;;;;;;20.70;32.70;;;;;;8329849;28;19967;-45
2023/03/21 11:10:50;;;;;;;;;;;20.70;32.70;;;;;;8329022;28;19920;-43
2023/03/21 11:14:50;;;;;;;;;;;20.70;32.70;;;;;;8330120;28;19925;-44
2023/03/21 11:18:55;;;;;;;;;;;20.70;32.70;;;;;;8330028;28;20294;-44
2023/03/21 11:22:55;;;;;;;;;;;20.70;32.70;;;;;;8329570;28;19917;-44
2023/03/21 11:26:56;;;;;;;;;;;20.70;32.70;;;;;;8330183;28;20450;-43
2023/03/21 11:30:58;;;;;;;;;;;20.70;32.70;;;;;;8330141;28;19918;-44
2023/03/21 11:35:01;;;;;;;;;;;20.70;32.70;;;;;;8329255;28;20397;-44
2023/03/21 11:39:11;;;;;;;;;;;20.70;32.70;;;;;;8329746;28;20004;-44
2023/03/21 11:43:17;;;;;;;;;;;20.70;32.60;;;;;;8329880;28;20428;-44
2023/03/21 11:47:18;;;;;;;;;;;20.80;32.80;;;;;;8329220;28;20434;-44
2023/03/21 11:51:25;;;;;;;;;;;20.80;32.70;;;;;;8329998;28;19913;-44
2023/03/21 11:55:40;;;;;;;;;;;20.80;32.70;;;;;;8329483;28;19951;-45
2023/03/21 12:00:01;;;;;;;;;;;20.80;32.70;;;;;;8329538;28;19925;-44
2023/03/21 12:04:17;;;;;;;;;;;20.80;32.70;;;;;;8329739;28;19921;-43
2023/03/21 12:08:22;;;;;;;;;;;20.80;32.70;;;;;;8329014;28;19928;-45
2023/03/21 12:12:41;;;;;;;;;;;20.80;32.70;;;;;;8329714;28;19914;-44
2023/03/21 12:16:42;;;;;;;;;;;20.80;32.70;;;;;;8330662;28;19926;-47
2023/03/21 12:20:47;;;;;;;;;;;20.80;32.70;;;;;;8335302;28;20354;-45
2023/03/21 12:24:55;;;;;;;;;;;20.80;32.70;;;;;;8335464;28;19921;-44
2023/03/21 12:29:02;;;;;;;;;;;20.80;32.80;;;;;;8334766;28;20433;-44
2023/03/21 12:33:12;;;;;;;;;;;20.80;32.70;;;;;;8335474;28;19928;-45
2023/03/21 12:37:12;;;;;;;;;;;20.80;32.70;;;;;;8335106;28;19921;-45
2023/03/21 12:41:16;;;;;;;;;;;20.80;32.70;;;;;;8334279;28;19945;-44
2023/03/21 12:45:19;;;;;;;;;;;20.90;32.70;;;;;;8334778;28;19971;-45
2023/03/21 12:49:22;;;;;;;;;;;20.90;32.80;;;;;;8334675;28;19921;-45
2023/03/21 12:53:28;;;;;;;;;;;20.90;32.80;;;;;;8334011;28;19917;-45
2023/03/21 12:57:31;;;;;;;;;;;20.90;32.70;;;;;;8358476;28;19935;-45
2023/03/21 13:01:32;;;;;;;;;;;20.90;32.70;;;;;;8334471;28;19932;-46
2023/03/21 13:05:41;;;;;;;;;;;20.90;32.70;;;;;;8333625;28;20007;-45
2023/03/21 13:09:42;;;;;;;;;;;20.90;32.70;;;;;;8334042;28;19917;-46
2023/03/21 13:14:02;;;;;;;;;;;20.90;32.70;;;;;;8333443;28;19921;-45
2023/03/21 13:18:09;;;;;;;;;;;20.90;32.70;;;;;;8334145;28;19921;-44
2023/03/21 13:22:15;;;;;;;;;;;20.90;32.70;;;;;;8334031;28;19917;-46
2023/03/21 13:26:15;;;;;;;;;;;20.90;32.70;;;;;;8333222;28;20279;-45
2023/03/21 13:30:24;;;;;;;;;;;20.90;32.70;;;;;;8332643;28;19918;-46
2023/03/21 13:34:25;;;;;;;;;;;20.90;32.70;;;;;;8333015;28;19921;-45
2023/03/21 13:38:27;;;;;;;;;;;20.90;32.70;;;;;;8332572;28;19943;-45
2023/03/21 13:42:31;;;;;;;;;;;20.90;32.70;;;;;;8333401;28;20435;-45
2023/03/21 13:46:49;;;;;;;;;;;20.90;32.70;;;;;;8332934;28;19917;-45
2023/03/21 13:50:51;;;;;;;;;;;20.90;32.80;;;;;;8332618;28;20019;-46
2023/03/21 13:54:55;;;;;;;;;;;20.90;32.80;;;;;;8332836;28;20382;-44
2023/03/21 13:58:57;;;;;;;;;;;20.90;32.80;;;;;;8331893;28;20267;-46
2023/03/21 14:03:09;;;;;;;;;;;20.90;32.70;;;;;;8332702;28;20015;-47
2023/03/21 14:07:20;;;;;;;;;;;20.90;32.70;;;;;;8299920;28;20249;-43
2023/03/21 14:11:21;;;;;;;;;;;20.90;32.70;;;;;;8327277;28;20396;-45
2023/03/21 14:15:23;;;;;;;;;;;20.90;32.70;;;;;;8331846;28;19925;-44
2023/03/21 14:19:31;;;;;;;;;;;20.90;32.70;;;;;;8331835;28;19914;-44
2023/03/21 14:23:31;;;;;;;;;;;20.90;32.70;;;;;;8331335;28;19921;-44
2023/03/21 14:27:33;;;;;;;;;;;20.90;32.70;;;;;;8331917;28;20000;-45
2023/03/21 14:31:34;;;;;;;;;;;20.90;32.70;;;;;;8331054;28;19957;-42
2023/03/21 14:35:34;;;;;;;;;;;20.90;32.70;;;;;;8331186;28;19925;-45
2023/03/21 14:39:35;;;;;;;;;;;20.90;32.70;;;;;;8331338;28;19917;-45
2023/03/21 14:43:35;;;;;;;;;;;20.90;32.70;;;;;;8330698;28;19987;-43
2023/03/21 14:47:36;;;;;;;;;;;20.90;32.70;;;;;;8331027;28;19944;-44
2023/03/21 14:51:37;;;;;;;;;;;20.90;32.70;;;;;;8330949;28;19947;-45
2023/03/21 14:55:43;;;;;;;;;;;20.90;32.70;;;;;;8330468;28;19925;-45
2023/03/21 14:59:46;;;;;;;;;;;20.90;32.70;;;;;;8331009;28;20338;-44
2023/03/21 15:03:49;;;;;;;;;;;20.90;32.70;;;;;;8330644;28;19964;-45
2023/03/21 15:07:55;;;;;;;;;;;20.90;32.70;;;;;;8330256;28;19913;-47
2023/03/21 15:11:56;;;;;;;;;;;20.90;32.70;;;;;;8330159;28;19971;-44
2023/03/21 15:15:57;;;;;;;;;;;20.90;32.70;;;;;;8330125;28;19925;-45
2023/03/21 15:19:57;;;;;;;;;;;20.90;32.70;;;;;;8329603;28;19940;-45
2023/03/21 15:24:00;;;;;;;;;;;20.90;32.70;;;;;;8329987;28;19921;-44
2023/03/21 15:28:01;;;;;;;;;;;20.90;32.70;;;;;;8330146;28;19959;-45
2023/03/21 15:32:03;;;;;;;;;;;20.90;32.70;;;;;;8329238;28;20349;-44
2023/03/21 15:36:07;;;;;;;;;;;20.90;32.70;;;;;;8329815;28;19931;-48
2023/03/21 15:40:19;;;;;;;;;;;20.90;32.70;;;;;;8329472;28;20305;-45
2023/03/21 15:44:20;;;;;;;;;;;20.90;32.70;;;;;;8329191;28;19917;-43
2023/03/21 15:48:25;;;;;;;;;;;20.90;32.70;;;;;;8329832;28;19921;-45
2023/03/21 15:52:26;;;;;;;;;;;20.90;32.70;;;;;;8332773;28;19997;-43
2023/03/21 15:56:32;;;;;;;;;;;20.90;32.70;;;;;;8335740;28;19933;-44
2023/03/21 16:00:40;;;;;;;;;;;20.90;33.30;;;;;;8336313;28;20374;-44
2023/03/21 16:04:53;;;;;;;;;;;20.90;32.80;;;;;;8335578;28;19921;-44
2023/03/21 16:09:03;;;;;;;;;;;20.90;32.70;;;;;;8335853;28;19913;-44
2023/03/21 16:13:03;;;;;;;;;;;20.90;32.80;;;;;;8336108;28;19913;-44
2023/03/21 16:17:23;;;;;;;;;;;21.00;32.80;;;;;;8334932;28;19925;-44
2023/03/21 16:21:25;;;;;;;;;;;21.10;32.80;;;;;;8335414;28;19924;-45
2023/03/21 16:25:26;;;;;;;;;;;21.10;32.70;;;;;;8335570;28;19964;-45
2023/03/21 16:29:27;;;;;;;;;;;21.20;32.60;;;;;;8334858;28;20000;-45
2023/03/21 16:33:27;;;;;;;;;;;21.20;32.70;;;;;;8335315;28;19917;-43
2023/03/21 16:37:28;;;;;;;;;;;21.30;32.60;;;;;;8334976;28;20387;-44
2023/03/21 16:41:28;;;;;;;;;;;21.40;32.60;;;;;;8334155;28;20263;-45
2023/03/21 16:45:29;;;;;;;;;;;21.40;32.60;;;;;;8334251;28;19917;-45
2023/03/21 16:49:30;;;;;;;;;;;21.40;32.60;;;;;;8334519;28;19924;-44
2023/03/21 16:53:30;;;;;;;;;;;21.50;32.60;;;;;;8334322;28;19913;-44
2023/03/21 16:57:31;;;;;;;;;;;21.50;32.60;;;;;;8334127;28;20085;-45
2023/03/21 17:01:32;;;;;;;;;;;21.50;32.60;;;;;;8334139;28;20377;-44
2023/03/21 17:05:32;;;;;;;;;;;21.50;32.60;;;;;;8314895;28;19924;-45
2023/03/21 17:09:33;;;;;;;;;;;21.50;32.60;;;;;;8333814;28;20371;-44
2023/03/21 17:13:33;;;;;;;;;;;21.50;32.60;;;;;;8334076;28;20000;-45
2023/03/21 17:17:34;;;;;;;;;;;21.50;32.60;;;;;;8333329;28;19929;-45
2023/03/21 17:21:34;;;;;;;;;;;21.50;32.70;;;;;;8333424;28;19979;-44
2023/03/21 17:25:34;;;;;;;;;;;21.50;32.70;;;;;;8332882;28;19917;-42
2023/03/21 17:29:35;;;;;;;;;;;21.50;32.70;;;;;;8333406;28;20055;-45
2023/03/21 17:33:35;;;;;;;;;;;21.40;32.70;;;;;;8333626;28;19924;-45
2023/03/21 17:37:37;;;;;;;;;;;21.40;32.60;;;;;;8332546;28;19932;-44
2023/03/21 17:41:37;;;;;;;;;;;21.40;32.70;;;;;;8333343;28;19921;-44
2023/03/21 17:45:38;;;;;;;;;;;21.30;32.70;;;;;;8332779;28;19923;-44
2023/03/21 17:49:38;;;;;;;;;;;21.40;32.90;;;;;;8332269;28;20074;-44
2023/03/21 17:53:39;;;;;;;;;;;21.30;32.80;;;;;;8333036;28;20420;-44
2023/03/21 17:57:40;;;;;;;;;;;21.30;32.90;;;;;;8332646;28;19925;-43
2023/03/21 18:01:41;;;;;;;;;;;21.30;32.80;;;;;;8331742;28;19921;-45
2023/03/21 18:05:41;;;;;;;;;;;21.30;32.80;;;;;;8332410;28;20354;-45
2023/03/21 18:09:42;;;;;;;;;;;21.30;32.80;;;;;;8332163;28;19920;-45
2023/03/21 18:13:43;;;;;;;;;;;21.30;32.80;;;;;;8331493;28;20271;-45
2023/03/21 18:17:43;;;;;;;;;;;21.40;32.80;;;;;;8331859;28;19968;-44
2023/03/21 18:21:44;;;;;;;;;;;21.40;32.80;;;;;;8331962;28;19965;-46
2023/03/21 18:25:44;;;;;;;;;;;21.40;32.90;;;;;;8331111;28;19917;-45
2023/03/21 18:29:47;;;;;;;;;;;21.50;32.90;;;;;;8331712;28;19925;-46
2023/03/21 18:33:48;;;;;;;;;;;21.50;32.90;;;;;;8331930;28;19921;-44
2023/03/21 18:37:48;;;;;;;;;;;21.50;32.80;;;;;;8330706;28;19929;-45
2023/03/21 18:41:49;;;;;;;;;;;21.50;32.90;;;;;;8331072;28;19991;-44
2023/03/21 18:45:50;;;;;;;;;;;21.50;32.90;;;;;;8330907;28;20290;-44
2023/03/21 18:49:51;;;;;;;;;;;21.60;32.80;;;;;;8330576;28;19932;-45
2023/03/21 18:53:51;;;;;;;;;;;21.50;32.90;;;;;;8331266;28;20298;-46
2023/03/21 18:57:52;;;;;;;;;;;21.60;32.90;;;;;;8330747;28;19936;-45
2023/03/21 19:01:53;;;;;;;;;;;21.50;32.70;;;;;;8330066;28;19944;-46
2023/03/21 19:05:56;;;;;;;;;;;21.60;32.80;;;;;;8330690;28;19917;-44
2023/03/21 19:09:57;;;;;;;;;;;21.60;32.90;;;;;;8330601;28;19913;-44
2023/03/21 19:13:58;;;;;;;;;;;21.50;32.90;;;;;;8329622;28;19983;-44
2023/03/21 19:17:58;;;;;;;;;;;21.50;33.00;;;;;;8330366;28;19968;-44
2023/03/21 19:21:59;;;;;;;;;;;21.50;33.00;;;;;;8330109;28;20020;-43
2023/03/21 19:26:00;;;;;;;;;;;21.40;32.90;;;;;;8328968;28;19917;-43
2023/03/21 19:30:00;;;;;;;;;;;21.40;33.10;;;;;;8330236;28;20025;-43
2023/03/21 19:34:02;;;;;;;;;;;21.40;33.10;;;;;;8330081;28;19978;-44
2023/03/21 19:38:02;;;;;;;;;;;21.40;33.10;;;;;;8329491;28;19948;-43
2023/03/21 19:42:03;;;;;;;;;;;21.40;33.10;;;;;;8329927;28;19987;-44
2023/03/21 19:46:03;;;;;;;;;;;21.40;33.10;;;;;;8329558;28;20260;-44
2023/03/21 19:50:04;;;;;;;;;;;21.40;33.20;;;;;;8329534;28;19913;-46
2023/03/21 19:54:06;;;;;;;;;;;21.40;33.20;;;;;;8329715;28;19936;-45
2023/03/21 19:58:06;;;;;;;;;;;21.40;33.20;;;;;;8329854;28;19967;-45
2023/03/21 20:02:09;;;;;;;;;;;21.40;33.10;;;;;;8329211;28;20431;-45
2023/03/21 20:06:10;;;;;;;;;;;21.40;33.00;;;;;;8329581;28;19913;-45
2023/03/21 20:10:11;;;;;;;;;;;21.50;33.20;;;;;;8326157;28;20290;-44
2023/03/21 20:14:11;;;;;;;;;;;21.50;33.30;;;;;;8326629;28;19924;-44
2023/03/21 20:18:12;;;;;;;;;;;21.50;33.10;;;;;;8329518;28;19971;-44
2023/03/21 20:22:13;;;;;;;;;;;21.50;33.10;;;;;;8329583;28;20135;-45
2023/03/21 20:26:14;;;;;;;;;;;21.60;33.00;;;;;;8328824;28;19924;-49
2023/03/21 20:30:16;;;;;;;;;;;21.60;33.00;;;;;;8329501;28;19940;-44
2023/03/21 20:34:16;;;;;;;;;;;21.60;33.00;;;;;;8329046;28;20371;-44
2023/03/21 20:38:19;;;;;;;;;;;21.60;33.00;;;;;;8331080;28;19941;-46
2023/03/21 20:42:19;;;;;;;;;;;21.60;33.10;;;;;;8335380;28;19913;-45
2023/03/21 20:46:20;;;;;;;;;;;21.60;33.10;;;;;;8335052;28;19924;-44
2023/03/21 20:50:20;;;;;;;;;;;21.60;33.10;;;;;;8334613;28;19917;-45
2023/03/21 20:54:21;;;;;;;;;;;21.60;33.20;;;;;;8316869;28;19921;-45
2023/03/21 20:58:22;;;;;;;;;;;21.60;33.20;;;;;;8316792;28;19969;-44
2023/03/21 21:02:23;;;;;;;;;;;21.50;33.30;;;;;;8334129;28;19978;-45
2023/03/21 21:06:23;;;;;;;;;;;21.50;33.10;;;;;;8334724;28;19913;-44
2023/03/21 21:10:24;;;;;;;;;;;21.50;33.30;;;;;;8334499;28;19925;-45
2023/03/21 21:14:24;;;;;;;;;;;21.50;33.40;;;;;;8333539;28;20019;-44
2023/03/21 21:18:25;;;;;;;;;;;21.50;33.40;;;;;;8333884;28;19917;-46
2023/03/21 21:22:27;;;;;;;;;;;21.40;33.40;;;;;;8333870;28;20384;-45
2023/03/21 21:26:27;;;;;;;;;;;21.40;33.40;;;;;;8333210;28;19917;-43
2023/03/21 21:30:28;;;;;;;;;;;21.50;33.50;;;;;;8334101;28;19917;-45
2023/03/21 21:34:29;;;;;;;;;;;21.40;33.30;;;;;;8333322;28;19983;-42
2023/03/21 21:38:30;;;;;;;;;;;21.40;33.30;;;;;;8332811;28;19996;-44
2023/03/21 21:42:30;;;;;;;;;;;21.40;33.30;;;;;;8333428;28;19920;-43
2023/03/21 21:46:31;;;;;;;;;;;21.40;33.40;;;;;;8333046;28;19970;-45
2023/03/21 21:50:31;;;;;;;;;;;21.40;33.40;;;;;;8332417;28;19913;-44
2023/03/21 21:54:35;;;;;;;;;;;21.40;33.40;;;;;;8332855;28;19957;-43
2023/03/21 21:58:37;;;;;;;;;;;21.40;33.40;;;;;;8332922;28;19913;-44
2023/03/21 22:02:38;;;;;;;;;;;21.40;33.40;;;;;;8332581;28;19964;-44
2023/03/21 22:06:41;;;;;;;;;;;21.40;33.30;;;;;;8332306;28;19924;-44
2023/03/21 22:10:43;;;;;;;;;;;21.40;33.30;;;;;;8332167;28;20392;-44
2023/03/21 22:14:43;;;;;;;;;;;21.40;33.40;;;;;;8314579;28;20345;-45
2023/03/21 22:18:44;;;;;;;;;;;21.40;33.30;;;;;;8332047;28;19917;-44
2023/03/21 22:22:45;;;;;;;;;;;21.40;33.40;;;;;;8331551;28;19913;-44
2023/03/21 22:26:45;;;;;;;;;;;21.40;33.40;;;;;;8332044;28;19917;-44
2023/03/21 22:30:46;;;;;;;;;;;21.40;33.40;;;;;;8332078;28;19928;-44
2023/03/21 22:34:46;;;;;;;;;;;21.40;33.30;;;;;;8331049;28;19925;-44
2023/03/21 22:38:46;;;;;;;;;;;21.40;33.40;;;;;;8331509;28;19966;-44
2023/03/21 22:42:47;;;;;;;;;;;21.30;33.30;;;;;;8331574;28;19917;-44
2023/03/21 22:46:47;;;;;;;;;;;21.30;33.40;;;;;;8330789;28;19951;-44
2023/03/21 22:50:48;;;;;;;;;;;21.30;33.40;;;;;;8331501;28;19971;-44
2023/03/21 22:54:48;;;;;;;;;;;21.30;33.50;;;;;;8331169;28;20397;-42
2023/03/21 22:58:49;;;;;;;;;;;21.30;33.50;;;;;;8330467;28;20336;-43
2023/03/21 23:02:49;;;;;;;;;;;21.30;33.40;;;;;;8329189;28;19921;-44
2023/03/21 23:06:50;;;;;;;;;;;21.20;33.40;;;;;;8329518;28;20433;-44
2023/03/21 23:10:50;;;;;;;;;;;21.20;33.50;;;;;;8330543;28;20079;-44
2023/03/21 23:14:51;;;;;;;;;;;21.20;33.50;;;;;;8330495;28;20302;-43
2023/03/21 23:18:52;;;;;;;;;;;21.20;33.50;;;;;;8330381;28;20377;-43
2023/03/21 23:22:53;;;;;;;;;;;21.10;33.40;;;;;;8330063;28;20370;-45
2023/03/21 23:26:53;;;;;;;;;;;21.10;33.40;;;;;;8330285;28;19921;-43
2023/03/21 23:30:54;;;;;;;;;;;21.10;33.50;;;;;;8330581;28;19917;-44